sensor_id;sensor_type;location;lat;lon;timestamp;P1;durP1;ratioP1;P2;durP2;ratioP2
35745;SDS011;21870;42.812;74.628;2023-08-07T00:02:20;2.88;;;1.60;;
35745;SDS011;21870;42.812;74.628;2023-08-07T00:04:46;2.70;;;1.60;;
35745;SDS011;21870;42.812;74.628;2023-08-07T00:07:12;2.95;;;1.55;;
35745;SDS011;21870;42.812;74.628;2023-08-07T00:09:38;1.40;;;1.30;;
35745;SDS011;21870;42.812;74.628;2023-08-07T00:12:04;2.00;;;1.40;;
35745;SDS011;21870;42.812;74.628;2023-08-07T00:14:30;1.38;;;1.23;;
35745;SDS011;21870;42.812;74.628;2023-08-07T00:16:56;1.55;;;1.45;;
35745;SDS011;21870;42.812;74.628;2023-08-07T00:19:23;1.42;;;1.17;;
35745;SDS011;21870;42.812;74.628;2023-08-07T00:21:49;3.65;;;1.73;;
35745;SDS011;21870;42.812;74.628;2023-08-07T00:24:14;1.75;;;1.23;;
35745;SDS011;21870;42.812;74.628;2023-08-07T00:26:40;1.73;;;1.50;;
35745;SDS011;21870;42.812;74.628;2023-08-07T00:29:06;2.95;;;1.50;;
35745;SDS011;21870;42.812;74.628;2023-08-07T00:31:32;1.40;;;1.30;;
35745;SDS011;21870;42.812;74.628;2023-08-07T00:33:59;2.15;;;1.10;;
35745;SDS011;21870;42.812;74.628;2023-08-07T00:36:25;3.35;;;1.48;;
35745;SDS011;21870;42.812;74.628;2023-08-07T00:38:53;1.65;;;1.30;;
35745;SDS011;21870;42.812;74.628;2023-08-07T00:41:19;1.08;;;1.08;;
35745;SDS011;21870;42.812;74.628;2023-08-07T00:43:45;1.67;;;1.38;;
35745;SDS011;21870;42.812;74.628;2023-08-07T00:46:11;1.73;;;1.00;;
35745;SDS011;21870;42.812;74.628;2023-08-07T00:48:37;1.50;;;1.10;;
35745;SDS011;21870;42.812;74.628;2023-08-07T00:51:04;2.63;;;1.10;;
35745;SDS011;21870;42.812;74.628;2023-08-07T00:53:33;1.73;;;1.30;;
35745;SDS011;21870;42.812;74.628;2023-08-07T00:56:02;1.52;;;1.40;;
35745;SDS011;21870;42.812;74.628;2023-08-07T00:58:28;0.98;;;0.98;;
35745;SDS011;21870;42.812;74.628;2023-08-07T01:00:55;1.58;;;1.10;;
35745;SDS011;21870;42.812;74.628;2023-08-07T01:03:21;4.65;;;1.25;;
35745;SDS011;21870;42.812;74.628;2023-08-07T01:05:48;3.17;;;1.63;;
35745;SDS011;21870;42.812;74.628;2023-08-07T01:08:14;1.88;;;1.67;;
35745;SDS011;21870;42.812;74.628;2023-08-07T01:13:29;2.33;;;1.40;;
35745;SDS011;21870;42.812;74.628;2023-08-07T01:16:15;1.95;;;1.00;;
35745;SDS011;21870;42.812;74.628;2023-08-07T01:18:47;1.80;;;1.70;;
35745;SDS011;21870;42.812;74.628;2023-08-07T01:21:18;1.33;;;1.23;;
35745;SDS011;21870;42.812;74.628;2023-08-07T01:23:47;3.22;;;1.35;;
35745;SDS011;21870;42.812;74.628;2023-08-07T01:26:17;1.00;;;1.00;;
35745;SDS011;21870;42.812;74.628;2023-08-07T01:29:06;1.00;;;0.85;;
35745;SDS011;21870;42.812;74.628;2023-08-07T01:31:45;0.73;;;0.73;;
35745;SDS011;21870;42.812;74.628;2023-08-07T01:34:14;0.95;;;0.82;;
35745;SDS011;21870;42.812;74.628;2023-08-07T01:36:46;1.83;;;1.50;;
35745;SDS011;21870;42.812;74.628;2023-08-07T01:39:14;4.05;;;0.90;;
35745;SDS011;21870;42.812;74.628;2023-08-07T01:41:41;1.00;;;0.90;;
35745;SDS011;21870;42.812;74.628;2023-08-07T01:44:07;0.90;;;0.90;;
35745;SDS011;21870;42.812;74.628;2023-08-07T01:46:33;2.00;;;1.00;;
35745;SDS011;21870;42.812;74.628;2023-08-07T01:48:59;0.80;;;0.80;;
35745;SDS011;21870;42.812;74.628;2023-08-07T01:51:25;1.10;;;1.00;;
35745;SDS011;21870;42.812;74.628;2023-08-07T01:53:51;2.63;;;1.15;;
35745;SDS011;21870;42.812;74.628;2023-08-07T01:56:17;1.10;;;1.00;;
35745;SDS011;21870;42.812;74.628;2023-08-07T01:58:43;0.95;;;0.85;;
35745;SDS011;21870;42.812;74.628;2023-08-07T02:01:09;1.33;;;0.77;;
35745;SDS011;21870;42.812;74.628;2023-08-07T02:03:35;2.33;;;1.10;;
35745;SDS011;21870;42.812;74.628;2023-08-07T02:06:01;1.60;;;0.70;;
35745;SDS011;21870;42.812;74.628;2023-08-07T02:08:28;2.50;;;1.05;;
35745;SDS011;21870;42.812;74.628;2023-08-07T02:10:54;1.40;;;1.10;;
35745;SDS011;21870;42.812;74.628;2023-08-07T02:13:20;1.70;;;1.33;;
35745;SDS011;21870;42.812;74.628;2023-08-07T02:15:46;1.75;;;1.27;;
35745;SDS011;21870;42.812;74.628;2023-08-07T02:18:11;1.85;;;1.63;;
35745;SDS011;21870;42.812;74.628;2023-08-07T02:20:37;1.85;;;1.55;;
35745;SDS011;21870;42.812;74.628;2023-08-07T02:23:03;1.27;;;1.17;;
35745;SDS011;21870;42.812;74.628;2023-08-07T02:25:29;4.70;;;1.95;;
35745;SDS011;21870;42.812;74.628;2023-08-07T02:27:55;3.72;;;1.67;;
35745;SDS011;21870;42.812;74.628;2023-08-07T02:30:21;3.05;;;1.60;;
35745;SDS011;21870;42.812;74.628;2023-08-07T02:32:47;3.72;;;1.85;;
35745;SDS011;21870;42.812;74.628;2023-08-07T02:35:13;4.13;;;1.83;;
35745;SDS011;21870;42.812;74.628;2023-08-07T02:37:39;7.60;;;2.38;;
35745;SDS011;21870;42.812;74.628;2023-08-07T02:40:06;2.45;;;1.83;;
35745;SDS011;21870;42.812;74.628;2023-08-07T02:42:32;7.00;;;2.15;;
35745;SDS011;21870;42.812;74.628;2023-08-07T02:44:58;2.92;;;2.00;;
35745;SDS011;21870;42.812;74.628;2023-08-07T02:47:24;4.07;;;1.83;;
35745;SDS011;21870;42.812;74.628;2023-08-07T02:49:50;5.97;;;1.73;;
35745;SDS011;21870;42.812;74.628;2023-08-07T02:52:16;7.15;;;4.47;;
35745;SDS011;21870;42.812;74.628;2023-08-07T02:54:42;6.40;;;2.65;;
35745;SDS011;21870;42.812;74.628;2023-08-07T02:57:08;12.18;;;2.22;;
35745;SDS011;21870;42.812;74.628;2023-08-07T02:59:34;4.40;;;2.17;;
35745;SDS011;21870;42.812;74.628;2023-08-07T03:02:00;4.55;;;2.03;;
35745;SDS011;21870;42.812;74.628;2023-08-07T03:04:26;3.67;;;2.40;;
35745;SDS011;21870;42.812;74.628;2023-08-07T03:06:52;2.60;;;2.33;;
35745;SDS011;21870;42.812;74.628;2023-08-07T03:09:18;14.20;;;3.45;;
35745;SDS011;21870;42.812;74.628;2023-08-07T03:11:44;12.00;;;2.67;;
35745;SDS011;21870;42.812;74.628;2023-08-07T03:14:10;8.23;;;2.50;;
35745;SDS011;21870;42.812;74.628;2023-08-07T03:16:36;7.40;;;2.40;;
35745;SDS011;21870;42.812;74.628;2023-08-07T03:19:02;14.55;;;2.65;;
35745;SDS011;21870;42.812;74.628;2023-08-07T03:21:28;10.52;;;2.35;;
35745;SDS011;21870;42.812;74.628;2023-08-07T03:23:54;12.82;;;2.42;;
35745;SDS011;21870;42.812;74.628;2023-08-07T03:26:19;14.70;;;2.83;;
35745;SDS011;21870;42.812;74.628;2023-08-07T03:28:45;7.55;;;3.28;;
35745;SDS011;21870;42.812;74.628;2023-08-07T03:31:13;3.55;;;2.53;;
35745;SDS011;21870;42.812;74.628;2023-08-07T03:33:39;28.98;;;4.72;;
35745;SDS011;21870;42.812;74.628;2023-08-07T03:36:05;9.90;;;3.00;;
35745;SDS011;21870;42.812;74.628;2023-08-07T03:38:32;23.25;;;4.47;;
35745;SDS011;21870;42.812;74.628;2023-08-07T03:40:58;19.60;;;3.83;;
35745;SDS011;21870;42.812;74.628;2023-08-07T03:43:24;9.82;;;3.30;;
35745;SDS011;21870;42.812;74.628;2023-08-07T03:45:58;13.00;;;3.65;;
35745;SDS011;21870;42.812;74.628;2023-08-07T03:48:24;6.80;;;3.25;;
35745;SDS011;21870;42.812;74.628;2023-08-07T03:50:51;12.43;;;3.17;;
35745;SDS011;21870;42.812;74.628;2023-08-07T03:53:17;16.95;;;3.50;;
35745;SDS011;21870;42.812;74.628;2023-08-07T03:55:43;11.75;;;3.53;;
35745;SDS011;21870;42.812;74.628;2023-08-07T03:58:14;10.48;;;3.33;;
35745;SDS011;21870;42.812;74.628;2023-08-07T04:00:40;7.45;;;2.92;;
35745;SDS011;21870;42.812;74.628;2023-08-07T04:03:06;11.02;;;2.83;;
35745;SDS011;21870;42.812;74.628;2023-08-07T04:05:33;25.73;;;4.50;;
35745;SDS011;21870;42.812;74.628;2023-08-07T04:07:59;14.88;;;3.15;;
35745;SDS011;21870;42.812;74.628;2023-08-07T04:10:25;10.15;;;3.03;;
35745;SDS011;21870;42.812;74.628;2023-08-07T04:12:51;5.45;;;2.53;;
35745;SDS011;21870;42.812;74.628;2023-08-07T04:15:17;9.95;;;3.08;;
35745;SDS011;21870;42.812;74.628;2023-08-07T04:17:43;8.80;;;2.60;;
35745;SDS011;21870;42.812;74.628;2023-08-07T04:20:09;7.45;;;2.22;;
35745;SDS011;21870;42.812;74.628;2023-08-07T04:22:35;10.82;;;2.65;;
35745;SDS011;21870;42.812;74.628;2023-08-07T04:25:01;7.40;;;2.90;;
35745;SDS011;21870;42.812;74.628;2023-08-07T04:27:27;14.88;;;3.40;;
35745;SDS011;21870;42.812;74.628;2023-08-07T04:29:54;10.77;;;2.83;;
35745;SDS011;21870;42.812;74.628;2023-08-07T04:32:20;7.35;;;2.72;;
35745;SDS011;21870;42.812;74.628;2023-08-07T04:34:46;10.13;;;2.47;;
35745;SDS011;21870;42.812;74.628;2023-08-07T04:37:12;9.38;;;2.72;;
35745;SDS011;21870;42.812;74.628;2023-08-07T04:39:38;13.40;;;2.95;;
35745;SDS011;21870;42.812;74.628;2023-08-07T04:42:04;10.60;;;2.85;;
35745;SDS011;21870;42.812;74.628;2023-08-07T04:44:30;9.05;;;3.22;;
35745;SDS011;21870;42.812;74.628;2023-08-07T04:46:56;8.98;;;3.00;;
35745;SDS011;21870;42.812;74.628;2023-08-07T04:49:22;9.30;;;2.92;;
35745;SDS011;21870;42.812;74.628;2023-08-07T04:51:48;8.13;;;2.95;;
35745;SDS011;21870;42.812;74.628;2023-08-07T04:54:14;9.02;;;3.45;;
35745;SDS011;21870;42.812;74.628;2023-08-07T04:56:40;8.02;;;3.20;;
35745;SDS011;21870;42.812;74.628;2023-08-07T04:59:09;11.73;;;3.40;;
35745;SDS011;21870;42.812;74.628;2023-08-07T05:01:35;8.20;;;3.30;;
35745;SDS011;21870;42.812;74.628;2023-08-07T05:04:01;9.45;;;3.00;;
35745;SDS011;21870;42.812;74.628;2023-08-07T05:06:27;11.32;;;3.95;;
35745;SDS011;21870;42.812;74.628;2023-08-07T05:08:53;10.77;;;3.17;;
35745;SDS011;21870;42.812;74.628;2023-08-07T05:11:19;11.55;;;3.33;;
35745;SDS011;21870;42.812;74.628;2023-08-07T05:13:45;5.70;;;2.85;;
35745;SDS011;21870;42.812;74.628;2023-08-07T05:16:11;9.25;;;3.45;;
35745;SDS011;21870;42.812;74.628;2023-08-07T05:18:37;34.58;;;5.65;;
35745;SDS011;21870;42.812;74.628;2023-08-07T05:21:04;11.98;;;4.10;;
35745;SDS011;21870;42.812;74.628;2023-08-07T05:23:32;11.50;;;4.03;;
35745;SDS011;21870;42.812;74.628;2023-08-07T05:25:58;15.73;;;3.08;;
35745;SDS011;21870;42.812;74.628;2023-08-07T05:28:24;8.18;;;2.95;;
35745;SDS011;21870;42.812;74.628;2023-08-07T05:30:50;10.35;;;3.47;;
35745;SDS011;21870;42.812;74.628;2023-08-07T05:33:16;11.60;;;3.28;;
35745;SDS011;21870;42.812;74.628;2023-08-07T05:35:42;6.32;;;3.38;;
35745;SDS011;21870;42.812;74.628;2023-08-07T05:38:08;11.85;;;3.75;;
35745;SDS011;21870;42.812;74.628;2023-08-07T05:40:34;5.00;;;2.95;;
35745;SDS011;21870;42.812;74.628;2023-08-07T05:43:01;11.50;;;3.83;;
35745;SDS011;21870;42.812;74.628;2023-08-07T05:45:28;8.50;;;3.20;;
35745;SDS011;21870;42.812;74.628;2023-08-07T05:47:54;14.35;;;3.75;;
35745;SDS011;21870;42.812;74.628;2023-08-07T05:50:20;8.00;;;2.80;;
35745;SDS011;21870;42.812;74.628;2023-08-07T05:52:46;4.10;;;2.38;;
35745;SDS011;21870;42.812;74.628;2023-08-07T05:55:12;5.75;;;3.00;;
35745;SDS011;21870;42.812;74.628;2023-08-07T05:57:38;6.90;;;2.97;;
35745;SDS011;21870;42.812;74.628;2023-08-07T06:00:04;7.15;;;3.25;;
35745;SDS011;21870;42.812;74.628;2023-08-07T06:02:30;6.25;;;3.22;;
35745;SDS011;21870;42.812;74.628;2023-08-07T06:04:56;5.03;;;2.60;;
35745;SDS011;21870;42.812;74.628;2023-08-07T06:07:22;6.95;;;2.40;;
35745;SDS011;21870;42.812;74.628;2023-08-07T06:09:51;5.07;;;3.25;;
35745;SDS011;21870;42.812;74.628;2023-08-07T06:12:17;6.57;;;2.67;;
35745;SDS011;21870;42.812;74.628;2023-08-07T06:14:42;6.63;;;2.67;;
35745;SDS011;21870;42.812;74.628;2023-08-07T06:17:08;6.43;;;3.00;;
35745;SDS011;21870;42.812;74.628;2023-08-07T06:19:34;4.80;;;2.72;;
35745;SDS011;21870;42.812;74.628;2023-08-07T06:22:00;8.00;;;2.38;;
35745;SDS011;21870;42.812;74.628;2023-08-07T06:24:26;4.25;;;1.92;;
35745;SDS011;21870;42.812;74.628;2023-08-07T06:26:52;5.18;;;2.50;;
35745;SDS011;21870;42.812;74.628;2023-08-07T06:29:18;3.88;;;2.03;;
35745;SDS011;21870;42.812;74.628;2023-08-07T06:31:44;6.85;;;3.40;;
35745;SDS011;21870;42.812;74.628;2023-08-07T06:34:10;4.95;;;3.05;;
35745;SDS011;21870;42.812;74.628;2023-08-07T06:36:36;6.82;;;2.42;;
35745;SDS011;21870;42.812;74.628;2023-08-07T06:39:02;6.05;;;3.00;;
35745;SDS011;21870;42.812;74.628;2023-08-07T06:41:29;9.38;;;3.35;;
35745;SDS011;21870;42.812;74.628;2023-08-07T06:43:55;7.85;;;2.45;;
35745;SDS011;21870;42.812;74.628;2023-08-07T06:46:21;9.15;;;2.75;;
35745;SDS011;21870;42.812;74.628;2023-08-07T06:48:51;9.75;;;3.00;;
35745;SDS011;21870;42.812;74.628;2023-08-07T06:51:17;8.93;;;2.92;;
35745;SDS011;21870;42.812;74.628;2023-08-07T06:53:43;14.68;;;2.63;;
35745;SDS011;21870;42.812;74.628;2023-08-07T06:56:09;9.07;;;3.08;;
35745;SDS011;21870;42.812;74.628;2023-08-07T06:58:35;5.82;;;2.35;;
35745;SDS011;21870;42.812;74.628;2023-08-07T07:01:02;10.32;;;3.13;;
35745;SDS011;21870;42.812;74.628;2023-08-07T07:03:28;3.72;;;2.15;;
35745;SDS011;21870;42.812;74.628;2023-08-07T07:05:54;10.80;;;2.72;;
35745;SDS011;21870;42.812;74.628;2023-08-07T07:08:20;3.85;;;2.25;;
35745;SDS011;21870;42.812;74.628;2023-08-07T07:10:48;3.80;;;2.63;;
35745;SDS011;21870;42.812;74.628;2023-08-07T07:13:14;14.82;;;2.92;;
35745;SDS011;21870;42.812;74.628;2023-08-07T07:15:40;4.97;;;2.40;;
35745;SDS011;21870;42.812;74.628;2023-08-07T07:18:06;4.60;;;2.38;;
35745;SDS011;21870;42.812;74.628;2023-08-07T07:20:32;11.48;;;3.45;;
35745;SDS011;21870;42.812;74.628;2023-08-07T07:22:58;6.55;;;2.95;;
35745;SDS011;21870;42.812;74.628;2023-08-07T07:25:24;10.68;;;2.85;;
35745;SDS011;21870;42.812;74.628;2023-08-07T07:27:50;7.85;;;2.65;;
35745;SDS011;21870;42.812;74.628;2023-08-07T07:30:16;8.15;;;2.70;;
35745;SDS011;21870;42.812;74.628;2023-08-07T07:32:42;5.93;;;2.55;;
35745;SDS011;21870;42.812;74.628;2023-08-07T07:35:08;8.20;;;2.72;;
35745;SDS011;21870;42.812;74.628;2023-08-07T07:37:34;6.38;;;3.17;;
35745;SDS011;21870;42.812;74.628;2023-08-07T07:40:00;6.57;;;2.58;;
35745;SDS011;21870;42.812;74.628;2023-08-07T07:42:26;10.63;;;3.00;;
35745;SDS011;21870;42.812;74.628;2023-08-07T07:44:52;5.22;;;3.42;;
35745;SDS011;21870;42.812;74.628;2023-08-07T07:47:18;6.20;;;2.65;;
35745;SDS011;21870;42.812;74.628;2023-08-07T07:49:45;4.32;;;2.65;;
35745;SDS011;21870;42.812;74.628;2023-08-07T07:52:14;8.40;;;3.42;;
35745;SDS011;21870;42.812;74.628;2023-08-07T07:54:40;7.60;;;3.00;;
35745;SDS011;21870;42.812;74.628;2023-08-07T07:57:07;3.80;;;2.22;;
35745;SDS011;21870;42.812;74.628;2023-08-07T07:59:33;4.90;;;2.40;;
35745;SDS011;21870;42.812;74.628;2023-08-07T08:01:59;6.50;;;3.15;;
35745;SDS011;21870;42.812;74.628;2023-08-07T08:04:25;9.68;;;3.00;;
35745;SDS011;21870;42.812;74.628;2023-08-07T08:06:51;10.95;;;3.35;;
35745;SDS011;21870;42.812;74.628;2023-08-07T08:09:17;7.07;;;2.60;;
35745;SDS011;21870;42.812;74.628;2023-08-07T08:11:43;5.13;;;2.30;;
35745;SDS011;21870;42.812;74.628;2023-08-07T08:14:09;8.02;;;2.33;;
35745;SDS011;21870;42.812;74.628;2023-08-07T08:16:35;11.77;;;3.47;;
35745;SDS011;21870;42.812;74.628;2023-08-07T08:19:01;5.22;;;2.85;;
35745;SDS011;21870;42.812;74.628;2023-08-07T08:21:27;9.70;;;3.08;;
35745;SDS011;21870;42.812;74.628;2023-08-07T08:23:55;8.82;;;3.05;;
35745;SDS011;21870;42.812;74.628;2023-08-07T08:26:21;4.63;;;2.20;;
35745;SDS011;21870;42.812;74.628;2023-08-07T08:28:47;8.75;;;2.47;;
35745;SDS011;21870;42.812;74.628;2023-08-07T08:31:13;7.00;;;3.40;;
35745;SDS011;21870;42.812;74.628;2023-08-07T08:33:39;6.95;;;2.60;;
35745;SDS011;21870;42.812;74.628;2023-08-07T08:36:05;5.15;;;2.72;;
35745;SDS011;21870;42.812;74.628;2023-08-07T08:38:31;10.98;;;2.80;;
35745;SDS011;21870;42.812;74.628;2023-08-07T08:40:59;13.32;;;3.15;;
35745;SDS011;21870;42.812;74.628;2023-08-07T08:43:27;7.30;;;2.50;;
35745;SDS011;21870;42.812;74.628;2023-08-07T08:45:59;5.95;;;2.80;;
35745;SDS011;21870;42.812;74.628;2023-08-07T08:48:26;9.45;;;2.47;;
35745;SDS011;21870;42.812;74.628;2023-08-07T08:50:56;10.63;;;2.88;;
35745;SDS011;21870;42.812;74.628;2023-08-07T08:53:23;4.57;;;2.30;;
35745;SDS011;21870;42.812;74.628;2023-08-07T08:55:50;10.27;;;2.53;;
35745;SDS011;21870;42.812;74.628;2023-08-07T08:58:17;7.88;;;2.50;;
35745;SDS011;21870;42.812;74.628;2023-08-07T09:00:45;4.68;;;2.50;;
35745;SDS011;21870;42.812;74.628;2023-08-07T09:03:11;5.65;;;2.28;;
35745;SDS011;21870;42.812;74.628;2023-08-07T09:05:37;7.38;;;3.22;;
35745;SDS011;21870;42.812;74.628;2023-08-07T09:08:04;10.05;;;2.65;;
35745;SDS011;21870;42.812;74.628;2023-08-07T09:10:31;7.80;;;3.22;;
35745;SDS011;21870;42.812;74.628;2023-08-07T09:13:02;6.93;;;2.33;;
35745;SDS011;21870;42.812;74.628;2023-08-07T09:15:33;6.43;;;3.08;;
35745;SDS011;21870;42.812;74.628;2023-08-07T09:18:02;11.93;;;3.50;;
35745;SDS011;21870;42.812;74.628;2023-08-07T09:20:30;9.55;;;3.45;;
35745;SDS011;21870;42.812;74.628;2023-08-07T09:22:56;3.95;;;2.85;;
35745;SDS011;21870;42.812;74.628;2023-08-07T09:25:32;8.75;;;2.85;;
35745;SDS011;21870;42.812;74.628;2023-08-07T09:28:02;7.18;;;2.80;;
35745;SDS011;21870;42.812;74.628;2023-08-07T09:30:35;4.40;;;2.75;;
35745;SDS011;21870;42.812;74.628;2023-08-07T09:33:03;7.10;;;3.22;;
35745;SDS011;21870;42.812;74.628;2023-08-07T09:35:30;4.43;;;3.15;;
35745;SDS011;21870;42.812;74.628;2023-08-07T09:37:57;8.80;;;3.08;;
35745;SDS011;21870;42.812;74.628;2023-08-07T09:40:23;9.40;;;3.10;;
35745;SDS011;21870;42.812;74.628;2023-08-07T09:42:50;9.02;;;3.65;;
35745;SDS011;21870;42.812;74.628;2023-08-07T09:45:23;6.70;;;3.05;;
35745;SDS011;21870;42.812;74.628;2023-08-07T09:48:00;9.70;;;3.67;;
35745;SDS011;21870;42.812;74.628;2023-08-07T09:50:28;5.00;;;3.35;;
35745;SDS011;21870;42.812;74.628;2023-08-07T09:52:55;5.97;;;3.10;;
35745;SDS011;21870;42.812;74.628;2023-08-07T09:55:23;11.15;;;3.50;;
35745;SDS011;21870;42.812;74.628;2023-08-07T09:57:49;6.47;;;3.72;;
35745;SDS011;21870;42.812;74.628;2023-08-07T10:00:16;5.72;;;3.08;;
35745;SDS011;21870;42.812;74.628;2023-08-07T10:02:45;6.40;;;2.90;;
35745;SDS011;21870;42.812;74.628;2023-08-07T10:05:13;9.35;;;2.97;;
35745;SDS011;21870;42.812;74.628;2023-08-07T10:07:39;5.93;;;3.38;;
35745;SDS011;21870;42.812;74.628;2023-08-07T10:10:06;11.05;;;3.30;;
35745;SDS011;21870;42.812;74.628;2023-08-07T10:12:33;7.60;;;2.65;;
35745;SDS011;21870;42.812;74.628;2023-08-07T10:14:59;5.30;;;2.95;;
35745;SDS011;21870;42.812;74.628;2023-08-07T10:17:26;4.60;;;2.80;;
35745;SDS011;21870;42.812;74.628;2023-08-07T10:19:53;5.05;;;3.00;;
35745;SDS011;21870;42.812;74.628;2023-08-07T10:22:20;6.38;;;3.05;;
35745;SDS011;21870;42.812;74.628;2023-08-07T10:24:48;6.13;;;3.63;;
35745;SDS011;21870;42.812;74.628;2023-08-07T10:27:17;8.95;;;3.55;;
35745;SDS011;21870;42.812;74.628;2023-08-07T10:29:46;9.00;;;3.63;;
35745;SDS011;21870;42.812;74.628;2023-08-07T10:32:14;12.82;;;4.75;;
35745;SDS011;21870;42.812;74.628;2023-08-07T10:34:49;11.20;;;4.00;;
35745;SDS011;21870;42.812;74.628;2023-08-07T10:37:48;7.68;;;4.03;;
35745;SDS011;21870;42.812;74.628;2023-08-07T10:40:09;8.18;;;3.75;;
35745;SDS011;21870;42.812;74.628;2023-08-07T10:45:36;10.20;;;3.97;;
35745;SDS011;21870;42.812;74.628;2023-08-07T10:51:19;9.50;;;3.78;;
35745;SDS011;21870;42.812;74.628;2023-08-07T10:55:57;15.20;;;4.00;;
35745;SDS011;21870;42.812;74.628;2023-08-07T10:58:28;8.77;;;3.28;;
35745;SDS011;21870;42.812;74.628;2023-08-07T11:04:06;6.47;;;3.83;;
35745;SDS011;21870;42.812;74.628;2023-08-07T11:06:37;11.25;;;3.65;;
35745;SDS011;21870;42.812;74.628;2023-08-07T11:09:07;15.02;;;4.30;;
35745;SDS011;21870;42.812;74.628;2023-08-07T11:11:38;12.35;;;3.78;;
35745;SDS011;21870;42.812;74.628;2023-08-07T11:14:09;11.02;;;3.90;;
35745;SDS011;21870;42.812;74.628;2023-08-07T11:16:39;12.23;;;3.50;;
35745;SDS011;21870;42.812;74.628;2023-08-07T11:19:06;11.52;;;3.42;;
35745;SDS011;21870;42.812;74.628;2023-08-07T11:21:33;7.78;;;4.38;;
35745;SDS011;21870;42.812;74.628;2023-08-07T11:23:59;13.02;;;3.70;;
35745;SDS011;21870;42.812;74.628;2023-08-07T11:26:26;8.02;;;3.75;;
35745;SDS011;21870;42.812;74.628;2023-08-07T11:28:53;9.63;;;3.72;;
35745;SDS011;21870;42.812;74.628;2023-08-07T11:31:20;11.93;;;4.88;;
35745;SDS011;21870;42.812;74.628;2023-08-07T11:33:51;17.98;;;5.55;;
35745;SDS011;21870;42.812;74.628;2023-08-07T11:36:20;23.70;;;6.05;;
35745;SDS011;21870;42.812;74.628;2023-08-07T11:38:46;15.52;;;5.43;;
35745;SDS011;21870;42.812;74.628;2023-08-07T11:41:13;10.48;;;4.50;;
35745;SDS011;21870;42.812;74.628;2023-08-07T11:43:40;10.23;;;4.20;;
35745;SDS011;21870;42.812;74.628;2023-08-07T11:46:07;5.72;;;2.72;;
35745;SDS011;21870;42.812;74.628;2023-08-07T11:48:36;8.30;;;2.25;;
35745;SDS011;21870;42.812;74.628;2023-08-07T11:51:03;2.45;;;2.25;;
35745;SDS011;21870;42.812;74.628;2023-08-07T11:53:31;5.22;;;1.77;;
35745;SDS011;21870;42.812;74.628;2023-08-07T11:56:00;2.80;;;1.58;;
35745;SDS011;21870;42.812;74.628;2023-08-07T11:58:28;1.88;;;1.10;;
35745;SDS011;21870;42.812;74.628;2023-08-07T12:01:05;8.30;;;1.98;;
35745;SDS011;21870;42.812;74.628;2023-08-07T12:03:36;4.53;;;1.50;;
35745;SDS011;21870;42.812;74.628;2023-08-07T12:06:06;11.80;;;2.60;;
35745;SDS011;21870;42.812;74.628;2023-08-07T12:11:04;31.67;;;5.55;;
35745;SDS011;21870;42.812;74.628;2023-08-07T12:13:31;36.60;;;5.53;;
35745;SDS011;21870;42.812;74.628;2023-08-07T12:16:00;19.60;;;3.60;;
35745;SDS011;21870;42.812;74.628;2023-08-07T12:18:29;7.30;;;3.03;;
35745;SDS011;21870;42.812;74.628;2023-08-07T12:20:59;7.13;;;2.97;;
35745;SDS011;21870;42.812;74.628;2023-08-07T12:23:26;9.70;;;4.18;;
35745;SDS011;21870;42.812;74.628;2023-08-07T12:25:53;14.15;;;4.50;;
35745;SDS011;21870;42.812;74.628;2023-08-07T12:28:22;19.17;;;5.43;;
35745;SDS011;21870;42.812;74.628;2023-08-07T12:30:48;17.83;;;6.28;;
35745;SDS011;21870;42.812;74.628;2023-08-07T12:33:15;13.73;;;6.22;;
35745;SDS011;21870;42.812;74.628;2023-08-07T12:35:42;9.82;;;5.57;;
35745;SDS011;21870;42.812;74.628;2023-08-07T12:38:08;10.75;;;5.28;;
35745;SDS011;21870;42.812;74.628;2023-08-07T12:40:35;14.68;;;6.03;;
35745;SDS011;21870;42.812;74.628;2023-08-07T12:43:02;12.63;;;5.63;;
35745;SDS011;21870;42.812;74.628;2023-08-07T12:45:28;12.95;;;6.10;;
35745;SDS011;21870;42.812;74.628;2023-08-07T12:47:54;17.90;;;6.55;;
35745;SDS011;21870;42.812;74.628;2023-08-07T12:50:20;15.02;;;6.65;;
35745;SDS011;21870;42.812;74.628;2023-08-07T12:52:46;21.88;;;7.40;;
35745;SDS011;21870;42.812;74.628;2023-08-07T12:55:13;10.82;;;6.03;;
35745;SDS011;21870;42.812;74.628;2023-08-07T12:57:42;16.17;;;6.60;;
35745;SDS011;21870;42.812;74.628;2023-08-07T13:00:12;10.20;;;5.60;;
35745;SDS011;21870;42.812;74.628;2023-08-07T13:02:44;12.52;;;6.07;;
35745;SDS011;21870;42.812;74.628;2023-08-07T13:05:11;11.85;;;5.15;;
35745;SDS011;21870;42.812;74.628;2023-08-07T13:07:39;11.90;;;4.68;;
35745;SDS011;21870;42.812;74.628;2023-08-07T13:10:06;9.27;;;4.38;;
35745;SDS011;21870;42.812;74.628;2023-08-07T13:12:36;11.55;;;4.45;;
35745;SDS011;21870;42.812;74.628;2023-08-07T13:15:03;7.55;;;3.60;;
35745;SDS011;21870;42.812;74.628;2023-08-07T13:17:31;5.30;;;2.63;;
35745;SDS011;21870;42.812;74.628;2023-08-07T13:19:58;5.55;;;2.28;;
35745;SDS011;21870;42.812;74.628;2023-08-07T13:22:25;6.05;;;1.85;;
35745;SDS011;21870;42.812;74.628;2023-08-07T13:24:52;4.72;;;2.10;;
35745;SDS011;21870;42.812;74.628;2023-08-07T13:27:18;11.27;;;2.38;;
35745;SDS011;21870;42.812;74.628;2023-08-07T13:29:44;6.05;;;1.88;;
35745;SDS011;21870;42.812;74.628;2023-08-07T13:32:10;3.25;;;1.70;;
35745;SDS011;21870;42.812;74.628;2023-08-07T13:34:36;2.22;;;1.42;;
35745;SDS011;21870;42.812;74.628;2023-08-07T13:37:03;2.80;;;1.73;;
35745;SDS011;21870;42.812;74.628;2023-08-07T13:39:32;5.53;;;1.80;;
35745;SDS011;21870;42.812;74.628;2023-08-07T13:41:58;4.55;;;1.67;;
35745;SDS011;21870;42.812;74.628;2023-08-07T13:44:25;3.40;;;1.95;;
35745;SDS011;21870;42.812;74.628;2023-08-07T13:46:51;6.82;;;1.95;;
35745;SDS011;21870;42.812;74.628;2023-08-07T13:49:17;2.90;;;1.75;;
35745;SDS011;21870;42.812;74.628;2023-08-07T13:51:45;5.18;;;1.70;;
35745;SDS011;21870;42.812;74.628;2023-08-07T13:54:12;3.00;;;1.80;;
35745;SDS011;21870;42.812;74.628;2023-08-07T13:56:38;4.50;;;2.33;;
35745;SDS011;21870;42.812;74.628;2023-08-07T13:59:04;2.75;;;1.85;;
35745;SDS011;21870;42.812;74.628;2023-08-07T14:01:30;1.70;;;1.60;;
35745;SDS011;21870;42.812;74.628;2023-08-07T14:03:58;3.30;;;1.65;;
35745;SDS011;21870;42.812;74.628;2023-08-07T14:06:24;2.10;;;1.80;;
35745;SDS011;21870;42.812;74.628;2023-08-07T14:08:50;2.05;;;1.85;;
35745;SDS011;21870;42.812;74.628;2023-08-07T14:11:16;2.22;;;1.80;;
35745;SDS011;21870;42.812;74.628;2023-08-07T14:13:42;1.83;;;1.73;;
35745;SDS011;21870;42.812;74.628;2023-08-07T14:16:09;2.15;;;2.00;;
35745;SDS011;21870;42.812;74.628;2023-08-07T14:18:35;2.70;;;2.13;;
35745;SDS011;21870;42.812;74.628;2023-08-07T14:21:01;3.35;;;2.35;;
35745;SDS011;21870;42.812;74.628;2023-08-07T14:23:27;3.42;;;2.10;;
35745;SDS011;21870;42.812;74.628;2023-08-07T14:25:53;4.53;;;2.10;;
35745;SDS011;21870;42.812;74.628;2023-08-07T14:28:19;3.33;;;2.08;;
35745;SDS011;21870;42.812;74.628;2023-08-07T14:30:45;2.35;;;2.03;;
35745;SDS011;21870;42.812;74.628;2023-08-07T14:33:12;2.88;;;1.60;;
35745;SDS011;21870;42.812;74.628;2023-08-07T14:35:38;1.83;;;1.58;;
35745;SDS011;21870;42.812;74.628;2023-08-07T14:38:04;2.13;;;1.85;;
35745;SDS011;21870;42.812;74.628;2023-08-07T14:40:30;1.70;;;1.52;;
35745;SDS011;21870;42.812;74.628;2023-08-07T14:42:56;2.17;;;1.90;;
35745;SDS011;21870;42.812;74.628;2023-08-07T14:45:22;1.45;;;1.30;;
35745;SDS011;21870;42.812;74.628;2023-08-07T14:47:49;2.58;;;1.50;;